sensor_id;sensor_type;location;lat;lon;timestamp;P1;durP1;ratioP1;P2;durP2;ratioP2
75427;SDS011;64008;55.612;37.698;2023-08-01T00:02:06;7.15;;;3.53;;
75427;SDS011;64008;55.612;37.698;2023-08-01T00:04:31;9.85;;;3.13;;
75427;SDS011;64008;55.612;37.698;2023-08-01T00:06:57;6.60;;;3.22;;
75427;SDS011;64008;55.612;37.698;2023-08-01T00:09:22;9.68;;;3.63;;
75427;SDS011;64008;55.612;37.698;2023-08-01T00:11:48;9.35;;;3.55;;
75427;SDS011;64008;55.612;37.698;2023-08-01T00:14:13;8.25;;;3.45;;
75427;SDS011;64008;55.612;37.698;2023-08-01T00:16:39;7.38;;;3.42;;
75427;SDS011;64008;55.612;37.698;2023-08-01T00:19:04;9.57;;;3.17;;
75427;SDS011;64008;55.612;37.698;2023-08-01T00:21:30;5.60;;;3.20;;
75427;SDS011;64008;55.612;37.698;2023-08-01T00:23:57;6.15;;;3.03;;
75427;SDS011;64008;55.612;37.698;2023-08-01T00:26:23;6.72;;;3.50;;
75427;SDS011;64008;55.612;37.698;2023-08-01T00:28:48;6.60;;;3.55;;
75427;SDS011;64008;55.612;37.698;2023-08-01T00:31:14;8.00;;;3.38;;
75427;SDS011;64008;55.612;37.698;2023-08-01T00:33:39;6.97;;;3.40;;
75427;SDS011;64008;55.612;37.698;2023-08-01T00:36:05;6.43;;;3.03;;
75427;SDS011;64008;55.612;37.698;2023-08-01T00:38:36;7.88;;;3.25;;
75427;SDS011;64008;55.612;37.698;2023-08-01T00:41:02;6.63;;;3.30;;
75427;SDS011;64008;55.612;37.698;2023-08-01T00:43:28;6.47;;;3.45;;
75427;SDS011;64008;55.612;37.698;2023-08-01T00:45:54;7.68;;;3.60;;
75427;SDS011;64008;55.612;37.698;2023-08-01T00:48:24;7.45;;;3.63;;
75427;SDS011;64008;55.612;37.698;2023-08-01T00:50:49;9.20;;;3.38;;
75427;SDS011;64008;55.612;37.698;2023-08-01T00:53:16;8.70;;;3.42;;
75427;SDS011;64008;55.612;37.698;2023-08-01T00:55:43;7.35;;;3.80;;
75427;SDS011;64008;55.612;37.698;2023-08-01T00:58:08;7.10;;;3.65;;
75427;SDS011;64008;55.612;37.698;2023-08-01T01:00:34;9.52;;;3.00;;
75427;SDS011;64008;55.612;37.698;2023-08-01T01:03:00;7.78;;;3.47;;
75427;SDS011;64008;55.612;37.698;2023-08-01T01:05:26;7.28;;;3.97;;
75427;SDS011;64008;55.612;37.698;2023-08-01T01:07:53;9.70;;;4.00;;
75427;SDS011;64008;55.612;37.698;2023-08-01T01:12:44;7.17;;;3.17;;
75427;SDS011;64008;55.612;37.698;2023-08-01T01:15:10;8.20;;;3.72;;
75427;SDS011;64008;55.612;37.698;2023-08-01T01:17:35;6.93;;;3.88;;
75427;SDS011;64008;55.612;37.698;2023-08-01T01:20:01;9.73;;;3.80;;
75427;SDS011;64008;55.612;37.698;2023-08-01T01:22:26;9.68;;;4.10;;
75427;SDS011;64008;55.612;37.698;2023-08-01T01:27:19;8.70;;;3.65;;
75427;SDS011;64008;55.612;37.698;2023-08-01T01:29:44;7.13;;;3.65;;
75427;SDS011;64008;55.612;37.698;2023-08-01T01:32:12;9.07;;;3.90;;
75427;SDS011;64008;55.612;37.698;2023-08-01T01:34:38;9.93;;;3.90;;
75427;SDS011;64008;55.612;37.698;2023-08-01T01:37:04;10.10;;;3.90;;
75427;SDS011;64008;55.612;37.698;2023-08-01T01:39:29;7.88;;;4.15;;
75427;SDS011;64008;55.612;37.698;2023-08-01T01:41:55;11.32;;;3.80;;
75427;SDS011;64008;55.612;37.698;2023-08-01T01:44:20;10.98;;;3.97;;
75427;SDS011;64008;55.612;37.698;2023-08-01T01:46:46;10.75;;;3.95;;
75427;SDS011;64008;55.612;37.698;2023-08-01T01:49:14;10.20;;;3.50;;
75427;SDS011;64008;55.612;37.698;2023-08-01T01:51:39;7.05;;;3.72;;
75427;SDS011;64008;55.612;37.698;2023-08-01T01:54:05;6.80;;;3.67;;
75427;SDS011;64008;55.612;37.698;2023-08-01T01:56:30;11.57;;;4.32;;
75427;SDS011;64008;55.612;37.698;2023-08-01T01:58:56;10.15;;;4.03;;
75427;SDS011;64008;55.612;37.698;2023-08-01T02:01:21;9.43;;;3.72;;
75427;SDS011;64008;55.612;37.698;2023-08-01T02:03:47;8.70;;;3.47;;
75427;SDS011;64008;55.612;37.698;2023-08-01T02:06:12;8.82;;;3.85;;
75427;SDS011;64008;55.612;37.698;2023-08-01T02:08:38;7.88;;;4.25;;
75427;SDS011;64008;55.612;37.698;2023-08-01T02:11:03;11.63;;;4.53;;
75427;SDS011;64008;55.612;37.698;2023-08-01T02:13:29;8.48;;;4.28;;
75427;SDS011;64008;55.612;37.698;2023-08-01T02:15:54;8.07;;;4.03;;
75427;SDS011;64008;55.612;37.698;2023-08-01T02:18:20;8.27;;;4.00;;
75427;SDS011;64008;55.612;37.698;2023-08-01T02:20:46;7.30;;;4.28;;
75427;SDS011;64008;55.612;37.698;2023-08-01T02:23:11;8.75;;;5.03;;
75427;SDS011;64008;55.612;37.698;2023-08-01T02:25:40;10.48;;;4.68;;
75427;SDS011;64008;55.612;37.698;2023-08-01T02:28:06;8.80;;;5.05;;
75427;SDS011;64008;55.612;37.698;2023-08-01T02:30:32;8.52;;;4.45;;
75427;SDS011;64008;55.612;37.698;2023-08-01T02:32:58;7.57;;;4.28;;
75427;SDS011;64008;55.612;37.698;2023-08-01T02:35:24;11.02;;;4.03;;
75427;SDS011;64008;55.612;37.698;2023-08-01T02:37:50;8.25;;;4.97;;
75427;SDS011;64008;55.612;37.698;2023-08-01T02:40:15;9.15;;;4.45;;
75427;SDS011;64008;55.612;37.698;2023-08-01T02:42:41;8.32;;;4.60;;
75427;SDS011;64008;55.612;37.698;2023-08-01T02:45:06;9.95;;;3.95;;
75427;SDS011;64008;55.612;37.698;2023-08-01T02:47:32;8.52;;;4.43;;
75427;SDS011;64008;55.612;37.698;2023-08-01T02:49:57;9.23;;;5.10;;
75427;SDS011;64008;55.612;37.698;2023-08-01T02:52:23;11.23;;;4.55;;
75427;SDS011;64008;55.612;37.698;2023-08-01T02:54:48;8.55;;;4.50;;
75427;SDS011;64008;55.612;37.698;2023-08-01T02:57:14;8.68;;;4.70;;
75427;SDS011;64008;55.612;37.698;2023-08-01T02:59:39;7.75;;;4.32;;
75427;SDS011;64008;55.612;37.698;2023-08-01T03:02:05;10.30;;;4.15;;
75427;SDS011;64008;55.612;37.698;2023-08-01T03:04:30;11.70;;;4.40;;
75427;SDS011;64008;55.612;37.698;2023-08-01T03:06:56;7.70;;;4.18;;
75427;SDS011;64008;55.612;37.698;2023-08-01T03:09:21;9.90;;;4.80;;
75427;SDS011;64008;55.612;37.698;2023-08-01T03:11:47;8.55;;;4.68;;
75427;SDS011;64008;55.612;37.698;2023-08-01T03:14:12;11.40;;;4.75;;
75427;SDS011;64008;55.612;37.698;2023-08-01T03:16:38;9.38;;;5.28;;
75427;SDS011;64008;55.612;37.698;2023-08-01T03:19:03;9.23;;;5.07;;
75427;SDS011;64008;55.612;37.698;2023-08-01T03:21:32;10.90;;;4.43;;
75427;SDS011;64008;55.612;37.698;2023-08-01T03:23:59;10.10;;;4.68;;
75427;SDS011;64008;55.612;37.698;2023-08-01T03:26:26;10.60;;;5.00;;
75427;SDS011;64008;55.612;37.698;2023-08-01T03:28:53;9.63;;;5.03;;
75427;SDS011;64008;55.612;37.698;2023-08-01T03:31:20;10.05;;;4.40;;
75427;SDS011;64008;55.612;37.698;2023-08-01T03:33:47;10.68;;;5.05;;
75427;SDS011;64008;55.612;37.698;2023-08-01T03:36:12;11.65;;;5.13;;
75427;SDS011;64008;55.612;37.698;2023-08-01T03:38:38;13.70;;;5.28;;
75427;SDS011;64008;55.612;37.698;2023-08-01T03:41:04;9.27;;;4.80;;
75427;SDS011;64008;55.612;37.698;2023-08-01T03:43:30;11.77;;;5.05;;
75427;SDS011;64008;55.612;37.698;2023-08-01T03:45:56;12.02;;;5.13;;
75427;SDS011;64008;55.612;37.698;2023-08-01T03:48:21;11.63;;;5.10;;
75427;SDS011;64008;55.612;37.698;2023-08-01T03:50:47;13.35;;;5.18;;
75427;SDS011;64008;55.612;37.698;2023-08-01T03:53:12;12.60;;;5.47;;
75427;SDS011;64008;55.612;37.698;2023-08-01T03:55:38;9.90;;;5.07;;
75427;SDS011;64008;55.612;37.698;2023-08-01T03:58:04;9.48;;;5.57;;
75427;SDS011;64008;55.612;37.698;2023-08-01T04:00:29;9.38;;;4.75;;
75427;SDS011;64008;55.612;37.698;2023-08-01T04:02:59;13.25;;;4.65;;
75427;SDS011;64008;55.612;37.698;2023-08-01T04:05:26;11.75;;;4.97;;
75427;SDS011;64008;55.612;37.698;2023-08-01T04:07:52;8.30;;;4.30;;
75427;SDS011;64008;55.612;37.698;2023-08-01T04:10:20;9.00;;;4.80;;
75427;SDS011;64008;55.612;37.698;2023-08-01T04:12:46;8.90;;;4.40;;
75427;SDS011;64008;55.612;37.698;2023-08-01T04:15:11;9.10;;;4.30;;
75427;SDS011;64008;55.612;37.698;2023-08-01T04:17:37;10.07;;;4.28;;
75427;SDS011;64008;55.612;37.698;2023-08-01T04:20:03;9.95;;;4.50;;
75427;SDS011;64008;55.612;37.698;2023-08-01T04:22:28;9.18;;;4.05;;
75427;SDS011;64008;55.612;37.698;2023-08-01T04:24:54;8.65;;;4.57;;
75427;SDS011;64008;55.612;37.698;2023-08-01T04:27:19;9.10;;;5.72;;
75427;SDS011;64008;55.612;37.698;2023-08-01T04:29:45;9.45;;;4.57;;
75427;SDS011;64008;55.612;37.698;2023-08-01T04:32:11;9.15;;;4.10;;
75427;SDS011;64008;55.612;37.698;2023-08-01T04:34:39;8.88;;;4.18;;
75427;SDS011;64008;55.612;37.698;2023-08-01T04:37:04;7.32;;;3.83;;
75427;SDS011;64008;55.612;37.698;2023-08-01T04:39:30;8.02;;;4.15;;
75427;SDS011;64008;55.612;37.698;2023-08-01T04:41:56;7.65;;;4.68;;
75427;SDS011;64008;55.612;37.698;2023-08-01T04:44:21;7.80;;;4.10;;
75427;SDS011;64008;55.612;37.698;2023-08-01T04:46:47;7.22;;;4.03;;
75427;SDS011;64008;55.612;37.698;2023-08-01T04:49:13;6.97;;;3.92;;
75427;SDS011;64008;55.612;37.698;2023-08-01T04:51:39;9.77;;;3.67;;
75427;SDS011;64008;55.612;37.698;2023-08-01T04:54:05;7.47;;;3.60;;
75427;SDS011;64008;55.612;37.698;2023-08-01T04:56:30;7.18;;;3.50;;
75427;SDS011;64008;55.612;37.698;2023-08-01T04:58:56;8.23;;;3.63;;
75427;SDS011;64008;55.612;37.698;2023-08-01T05:01:21;8.40;;;3.92;;
75427;SDS011;64008;55.612;37.698;2023-08-01T05:03:47;7.60;;;3.50;;
75427;SDS011;64008;55.612;37.698;2023-08-01T05:06:13;7.20;;;3.38;;
75427;SDS011;64008;55.612;37.698;2023-08-01T05:08:38;7.95;;;3.45;;
75427;SDS011;64008;55.612;37.698;2023-08-01T05:11:03;7.10;;;3.35;;
75427;SDS011;64008;55.612;37.698;2023-08-01T05:13:29;6.68;;;3.60;;
75427;SDS011;64008;55.612;37.698;2023-08-01T05:15:55;7.03;;;3.20;;
75427;SDS011;64008;55.612;37.698;2023-08-01T05:18:20;6.13;;;2.95;;
75427;SDS011;64008;55.612;37.698;2023-08-01T05:20:46;5.80;;;3.30;;
75427;SDS011;64008;55.612;37.698;2023-08-01T05:23:11;4.60;;;2.63;;
75427;SDS011;64008;55.612;37.698;2023-08-01T05:25:37;8.60;;;3.28;;
75427;SDS011;64008;55.612;37.698;2023-08-01T05:28:02;12.43;;;3.00;;
75427;SDS011;64008;55.612;37.698;2023-08-01T05:30:28;6.97;;;3.50;;
75427;SDS011;64008;55.612;37.698;2023-08-01T05:32:53;8.48;;;3.60;;
75427;SDS011;64008;55.612;37.698;2023-08-01T05:35:19;6.45;;;2.78;;
75427;SDS011;64008;55.612;37.698;2023-08-01T05:37:45;6.93;;;2.90;;
75427;SDS011;64008;55.612;37.698;2023-08-01T05:40:11;6.32;;;3.30;;
75427;SDS011;64008;55.612;37.698;2023-08-01T05:42:36;6.70;;;3.15;;
75427;SDS011;64008;55.612;37.698;2023-08-01T05:45:02;6.47;;;2.97;;
75427;SDS011;64008;55.612;37.698;2023-08-01T05:47:29;6.00;;;2.72;;
75427;SDS011;64008;55.612;37.698;2023-08-01T05:49:54;7.95;;;2.85;;
75427;SDS011;64008;55.612;37.698;2023-08-01T05:52:20;6.50;;;2.80;;
75427;SDS011;64008;55.612;37.698;2023-08-01T05:54:45;7.70;;;2.95;;
75427;SDS011;64008;55.612;37.698;2023-08-01T05:57:11;5.90;;;2.38;;
75427;SDS011;64008;55.612;37.698;2023-08-01T05:59:37;6.22;;;2.42;;
75427;SDS011;64008;55.612;37.698;2023-08-01T06:02:02;7.18;;;2.30;;
75427;SDS011;64008;55.612;37.698;2023-08-01T06:04:28;5.15;;;2.35;;
75427;SDS011;64008;55.612;37.698;2023-08-01T06:06:53;7.40;;;2.20;;
75427;SDS011;64008;55.612;37.698;2023-08-01T06:09:19;5.03;;;2.33;;
75427;SDS011;64008;55.612;37.698;2023-08-01T06:11:44;5.43;;;1.92;;
75427;SDS011;64008;55.612;37.698;2023-08-01T06:14:10;4.50;;;1.92;;
75427;SDS011;64008;55.612;37.698;2023-08-01T06:16:36;4.28;;;1.92;;
75427;SDS011;64008;55.612;37.698;2023-08-01T06:19:01;4.47;;;2.05;;
75427;SDS011;64008;55.612;37.698;2023-08-01T06:21:27;4.15;;;2.05;;
75427;SDS011;64008;55.612;37.698;2023-08-01T06:23:53;5.75;;;2.20;;
75427;SDS011;64008;55.612;37.698;2023-08-01T06:26:18;3.78;;;1.70;;
75427;SDS011;64008;55.612;37.698;2023-08-01T06:28:44;4.75;;;1.80;;
75427;SDS011;64008;55.612;37.698;2023-08-01T06:31:09;4.25;;;1.98;;
75427;SDS011;64008;55.612;37.698;2023-08-01T06:33:35;5.80;;;1.73;;
75427;SDS011;64008;55.612;37.698;2023-08-01T06:36:01;3.78;;;1.60;;
75427;SDS011;64008;55.612;37.698;2023-08-01T06:38:26;3.60;;;1.92;;
75427;SDS011;64008;55.612;37.698;2023-08-01T06:40:52;4.18;;;1.83;;
75427;SDS011;64008;55.612;37.698;2023-08-01T06:43:17;4.20;;;1.98;;
75427;SDS011;64008;55.612;37.698;2023-08-01T06:45:42;4.13;;;1.88;;
75427;SDS011;64008;55.612;37.698;2023-08-01T06:48:08;3.92;;;1.77;;
75427;SDS011;64008;55.612;37.698;2023-08-01T06:50:34;4.13;;;1.80;;
75427;SDS011;64008;55.612;37.698;2023-08-01T06:52:59;4.47;;;1.90;;
75427;SDS011;64008;55.612;37.698;2023-08-01T06:55:26;5.35;;;1.83;;
75427;SDS011;64008;55.612;37.698;2023-08-01T06:57:51;4.25;;;1.52;;
75427;SDS011;64008;55.612;37.698;2023-08-01T07:00:17;5.65;;;1.85;;
75427;SDS011;64008;55.612;37.698;2023-08-01T07:02:42;5.50;;;1.90;;
75427;SDS011;64008;55.612;37.698;2023-08-01T07:05:08;5.20;;;2.30;;
75427;SDS011;64008;55.612;37.698;2023-08-01T07:07:33;5.68;;;2.03;;
75427;SDS011;64008;55.612;37.698;2023-08-01T07:09:59;4.78;;;1.80;;
75427;SDS011;64008;55.612;37.698;2023-08-01T07:12:24;5.78;;;1.75;;
75427;SDS011;64008;55.612;37.698;2023-08-01T07:14:51;4.68;;;2.00;;
75427;SDS011;64008;55.612;37.698;2023-08-01T07:17:16;5.50;;;1.95;;
75427;SDS011;64008;55.612;37.698;2023-08-01T07:19:42;5.10;;;1.63;;
75427;SDS011;64008;55.612;37.698;2023-08-01T07:22:08;4.97;;;1.80;;
75427;SDS011;64008;55.612;37.698;2023-08-01T07:24:34;4.63;;;1.42;;
75427;SDS011;64008;55.612;37.698;2023-08-01T07:26:59;4.38;;;1.90;;
75427;SDS011;64008;55.612;37.698;2023-08-01T07:29:25;3.95;;;1.60;;
75427;SDS011;64008;55.612;37.698;2023-08-01T07:31:50;4.65;;;2.10;;
75427;SDS011;64008;55.612;37.698;2023-08-01T07:34:16;3.80;;;1.70;;
75427;SDS011;64008;55.612;37.698;2023-08-01T07:36:41;4.07;;;1.92;;
75427;SDS011;64008;55.612;37.698;2023-08-01T07:39:07;3.97;;;1.52;;
75427;SDS011;64008;55.612;37.698;2023-08-01T07:41:32;4.95;;;1.90;;
75427;SDS011;64008;55.612;37.698;2023-08-01T07:44:00;5.57;;;2.08;;
75427;SDS011;64008;55.612;37.698;2023-08-01T07:46:27;4.30;;;1.70;;
75427;SDS011;64008;55.612;37.698;2023-08-01T07:48:53;3.88;;;1.63;;
75427;SDS011;64008;55.612;37.698;2023-08-01T07:51:19;3.45;;;1.52;;
75427;SDS011;64008;55.612;37.698;2023-08-01T07:53:44;4.50;;;1.40;;
75427;SDS011;64008;55.612;37.698;2023-08-01T07:56:10;3.75;;;1.60;;
75427;SDS011;64008;55.612;37.698;2023-08-01T07:58:35;3.42;;;1.50;;
75427;SDS011;64008;55.612;37.698;2023-08-01T08:01:05;5.65;;;1.63;;
75427;SDS011;64008;55.612;37.698;2023-08-01T08:03:31;4.60;;;1.75;;
75427;SDS011;64008;55.612;37.698;2023-08-01T08:05:56;4.03;;;1.48;;
75427;SDS011;64008;55.612;37.698;2023-08-01T08:08:22;4.57;;;1.58;;
75427;SDS011;64008;55.612;37.698;2023-08-01T08:10:48;3.33;;;1.48;;
75427;SDS011;64008;55.612;37.698;2023-08-01T08:13:13;3.38;;;1.25;;
75427;SDS011;64008;55.612;37.698;2023-08-01T08:15:39;3.33;;;1.48;;
75427;SDS011;64008;55.612;37.698;2023-08-01T08:18:04;4.25;;;1.83;;
75427;SDS011;64008;55.612;37.698;2023-08-01T08:20:30;4.63;;;1.55;;
75427;SDS011;64008;55.612;37.698;2023-08-01T08:22:57;5.45;;;1.73;;
75427;SDS011;64008;55.612;37.698;2023-08-01T08:25:22;3.17;;;1.60;;
75427;SDS011;64008;55.612;37.698;2023-08-01T08:27:50;5.00;;;1.85;;
75427;SDS011;64008;55.612;37.698;2023-08-01T08:30:16;4.20;;;1.40;;
75427;SDS011;64008;55.612;37.698;2023-08-01T08:32:42;4.30;;;1.90;;
75427;SDS011;64008;55.612;37.698;2023-08-01T08:35:08;3.65;;;1.52;;
75427;SDS011;64008;55.612;37.698;2023-08-01T08:37:33;5.15;;;1.95;;
75427;SDS011;64008;55.612;37.698;2023-08-01T08:39:59;4.15;;;1.90;;
75427;SDS011;64008;55.612;37.698;2023-08-01T08:42:24;5.18;;;1.85;;
75427;SDS011;64008;55.612;37.698;2023-08-01T08:44:50;5.45;;;1.85;;
75427;SDS011;64008;55.612;37.698;2023-08-01T08:47:20;4.40;;;1.80;;
75427;SDS011;64008;55.612;37.698;2023-08-01T08:49:50;4.13;;;1.70;;
75427;SDS011;64008;55.612;37.698;2023-08-01T08:52:18;3.63;;;1.73;;
75427;SDS011;64008;55.612;37.698;2023-08-01T08:54:44;4.38;;;1.83;;
75427;SDS011;64008;55.612;37.698;2023-08-01T08:57:11;3.72;;;1.55;;
75427;SDS011;64008;55.612;37.698;2023-08-01T08:59:38;4.80;;;1.80;;
75427;SDS011;64008;55.612;37.698;2023-08-01T09:02:04;4.10;;;1.63;;
75427;SDS011;64008;55.612;37.698;2023-08-01T09:04:31;4.25;;;1.70;;
75427;SDS011;64008;55.612;37.698;2023-08-01T09:07:01;4.68;;;1.88;;
75427;SDS011;64008;55.612;37.698;2023-08-01T09:09:30;4.20;;;1.80;;
75427;SDS011;64008;55.612;37.698;2023-08-01T09:11:57;4.10;;;1.88;;
75427;SDS011;64008;55.612;37.698;2023-08-01T09:16:49;3.67;;;1.40;;
75427;SDS011;64008;55.612;37.698;2023-08-01T09:19:18;3.75;;;1.65;;
75427;SDS011;64008;55.612;37.698;2023-08-01T09:21:44;4.03;;;1.85;;
75427;SDS011;64008;55.612;37.698;2023-08-01T09:24:11;6.85;;;2.08;;
75427;SDS011;64008;55.612;37.698;2023-08-01T09:26:38;3.60;;;1.77;;
75427;SDS011;64008;55.612;37.698;2023-08-01T09:29:04;5.38;;;1.75;;
75427;SDS011;64008;55.612;37.698;2023-08-01T09:31:30;4.75;;;1.85;;
75427;SDS011;64008;55.612;37.698;2023-08-01T09:34:01;3.60;;;1.63;;
75427;SDS011;64008;55.612;37.698;2023-08-01T09:36:30;4.30;;;1.75;;
75427;SDS011;64008;55.612;37.698;2023-08-01T09:39:02;3.97;;;1.70;;
75427;SDS011;64008;55.612;37.698;2023-08-01T09:41:29;4.20;;;2.05;;
75427;SDS011;64008;55.612;37.698;2023-08-01T09:43:55;3.67;;;1.70;;
75427;SDS011;64008;55.612;37.698;2023-08-01T09:46:22;3.70;;;1.80;;
75427;SDS011;64008;55.612;37.698;2023-08-01T09:48:48;4.13;;;1.90;;
75427;SDS011;64008;55.612;37.698;2023-08-01T09:51:15;3.92;;;1.73;;
75427;SDS011;64008;55.612;37.698;2023-08-01T09:53:55;5.20;;;2.03;;
75427;SDS011;64008;55.612;37.698;2023-08-01T09:56:23;5.05;;;1.80;;
75427;SDS011;64008;55.612;37.698;2023-08-01T09:58:50;4.35;;;1.88;;
75427;SDS011;64008;55.612;37.698;2023-08-01T10:01:18;3.72;;;1.63;;
75427;SDS011;64008;55.612;37.698;2023-08-01T10:03:45;4.55;;;1.92;;
75427;SDS011;64008;55.612;37.698;2023-08-01T10:06:18;4.20;;;1.67;;
75427;SDS011;64008;55.612;37.698;2023-08-01T10:08:48;4.95;;;1.85;;
75427;SDS011;64008;55.612;37.698;2023-08-01T10:11:16;4.10;;;2.20;;
75427;SDS011;64008;55.612;37.698;2023-08-01T10:13:43;3.92;;;1.77;;
75427;SDS011;64008;55.612;37.698;2023-08-01T10:16:10;4.00;;;1.73;;
75427;SDS011;64008;55.612;37.698;2023-08-01T10:21:03;3.80;;;1.75;;
75427;SDS011;64008;55.612;37.698;2023-08-01T10:23:30;5.03;;;1.83;;
75427;SDS011;64008;55.612;37.698;2023-08-01T10:25:58;3.83;;;1.65;;
75427;SDS011;64008;55.612;37.698;2023-08-01T10:28:35;4.22;;;1.60;;
75427;SDS011;64008;55.612;37.698;2023-08-01T10:36:00;4.10;;;1.60;;
75427;SDS011;64008;55.612;37.698;2023-08-01T10:38:25;6.38;;;1.98;;
75427;SDS011;64008;55.612;37.698;2023-08-01T10:40:51;4.50;;;1.73;;
75427;SDS011;64008;55.612;37.698;2023-08-01T10:43:23;4.72;;;2.17;;
75427;SDS011;64008;55.612;37.698;2023-08-01T10:46:02;4.13;;;1.77;;
75427;SDS011;64008;55.612;37.698;2023-08-01T10:48:28;5.50;;;2.22;;
75427;SDS011;64008;55.612;37.698;2023-08-01T10:50:54;4.28;;;2.00;;
75427;SDS011;64008;55.612;37.698;2023-08-01T10:53:23;5.30;;;2.42;;
75427;SDS011;64008;55.612;37.698;2023-08-01T10:55:48;4.20;;;1.90;;
75427;SDS011;64008;55.612;37.698;2023-08-01T10:58:14;4.13;;;1.67;;
75427;SDS011;64008;55.612;37.698;2023-08-01T11:00:43;5.35;;;2.17;;
75427;SDS011;64008;55.612;37.698;2023-08-01T11:03:08;4.43;;;1.92;;
75427;SDS011;64008;55.612;37.698;2023-08-01T11:05:34;4.18;;;1.90;;
75427;SDS011;64008;55.612;37.698;2023-08-01T11:08:00;4.97;;;1.98;;
75427;SDS011;64008;55.612;37.698;2023-08-01T11:10:28;4.65;;;2.10;;
75427;SDS011;64008;55.612;37.698;2023-08-01T11:12:55;6.57;;;2.13;;
75427;SDS011;64008;55.612;37.698;2023-08-01T11:15:21;5.18;;;1.90;;
75427;SDS011;64008;55.612;37.698;2023-08-01T11:17:48;5.40;;;1.83;;
75427;SDS011;64008;55.612;37.698;2023-08-01T11:20:15;5.53;;;2.05;;
75427;SDS011;64008;55.612;37.698;2023-08-01T11:25:17;4.38;;;1.75;;
75427;SDS011;64008;55.612;37.698;2023-08-01T11:27:42;5.07;;;1.80;;
75427;SDS011;64008;55.612;37.698;2023-08-01T11:30:08;3.95;;;1.85;;
75427;SDS011;64008;55.612;37.698;2023-08-01T11:32:37;4.38;;;1.70;;
75427;SDS011;64008;55.612;37.698;2023-08-01T11:35:03;5.88;;;2.05;;
75427;SDS011;64008;55.612;37.698;2023-08-01T11:37:30;4.05;;;1.50;;
75427;SDS011;64008;55.612;37.698;2023-08-01T11:39:56;4.43;;;1.73;;
75427;SDS011;64008;55.612;37.698;2023-08-01T11:42:22;5.00;;;1.88;;
75427;SDS011;64008;55.612;37.698;2023-08-01T11:44:48;4.32;;;1.95;;
75427;SDS011;64008;55.612;37.698;2023-08-01T11:47:14;4.40;;;1.92;;
75427;SDS011;64008;55.612;37.698;2023-08-01T11:49:47;4.00;;;2.08;;
75427;SDS011;64008;55.612;37.698;2023-08-01T11:52:23;4.20;;;1.80;;
75427;SDS011;64008;55.612;37.698;2023-08-01T11:54:50;4.70;;;1.80;;
75427;SDS011;64008;55.612;37.698;2023-08-01T11:57:15;4.10;;;1.70;;
75427;SDS011;64008;55.612;37.698;2023-08-01T11:59:51;6.32;;;1.85;;
75427;SDS011;64008;55.612;37.698;2023-08-01T12:02:24;3.80;;;1.52;;
75427;SDS011;64008;55.612;37.698;2023-08-01T12:04:51;3.95;;;1.63;;
75427;SDS011;64008;55.612;37.698;2023-08-01T12:07:18;3.90;;;1.80;;
75427;SDS011;64008;55.612;37.698;2023-08-01T12:10:04;4.03;;;1.58;;
75427;SDS011;64008;55.612;37.698;2023-08-01T12:12:30;4.35;;;1.90;;
75427;SDS011;64008;55.612;37.698;2023-08-01T12:14:56;4.35;;;1.63;;
75427;SDS011;64008;55.612;37.698;2023-08-01T12:17:22;3.25;;;1.27;;
75427;SDS011;64008;55.612;37.698;2023-08-01T12:19:48;3.50;;;1.23;;
75427;SDS011;64008;55.612;37.698;2023-08-01T12:22:13;4.30;;;1.90;;
75427;SDS011;64008;55.612;37.698;2023-08-01T12:24:39;4.15;;;1.60;;
75427;SDS011;64008;55.612;37.698;2023-08-01T12:27:06;3.08;;;1.50;;
75427;SDS011;64008;55.612;37.698;2023-08-01T12:29:32;3.25;;;1.48;;
75427;SDS011;64008;55.612;37.698;2023-08-01T12:31:58;4.05;;;1.63;;
75427;SDS011;64008;55.612;37.698;2023-08-01T12:34:23;3.75;;;1.45;;
75427;SDS011;64008;55.612;37.698;2023-08-01T12:36:49;3.38;;;1.70;;
75427;SDS011;64008;55.612;37.698;2023-08-01T12:39:14;3.20;;;1.30;;
75427;SDS011;64008;55.612;37.698;2023-08-01T12:41:40;3.58;;;1.52;;
75427;SDS011;64008;55.612;37.698;2023-08-01T12:44:05;4.22;;;1.55;;
75427;SDS011;64008;55.612;37.698;2023-08-01T12:46:31;3.50;;;1.60;;
75427;SDS011;64008;55.612;37.698;2023-08-01T12:48:57;3.38;;;1.35;;
75427;SDS011;64008;55.612;37.698;2023-08-01T12:51:22;3.33;;;1.25;;
75427;SDS011;64008;55.612;37.698;2023-08-01T12:53:48;4.18;;;1.40;;
75427;SDS011;64008;55.612;37.698;2023-08-01T12:56:13;3.70;;;1.60;;
75427;SDS011;64008;55.612;37.698;2023-08-01T12:58:39;4.82;;;1.67;;
75427;SDS011;64008;55.612;37.698;2023-08-01T13:01:05;3.38;;;1.42;;
75427;SDS011;64008;55.612;37.698;2023-08-01T13:03:30;3.55;;;1.60;;
75427;SDS011;64008;55.612;37.698;2023-08-01T13:05:56;3.25;;;1.42;;
75427;SDS011;64008;55.612;37.698;2023-08-01T13:08:23;3.00;;;1.40;;
75427;SDS011;64008;55.612;37.698;2023-08-01T13:10:48;4.13;;;1.55;;
75427;SDS011;64008;55.612;37.698;2023-08-01T13:15:40;3.80;;;1.30;;
75427;SDS011;64008;55.612;37.698;2023-08-01T13:18:06;3.67;;;1.70;;
75427;SDS011;64008;55.612;37.698;2023-08-01T13:20:31;4.03;;;1.40;;
75427;SDS011;64008;55.612;37.698;2023-08-01T13:22:57;3.90;;;1.35;;
75427;SDS011;64008;55.612;37.698;2023-08-01T13:25:22;3.63;;;1.40;;
75427;SDS011;64008;55.612;37.698;2023-08-01T13:27:48;4.10;;;1.30;;
75427;SDS011;64008;55.612;37.698;2023-08-01T13:30:13;3.95;;;1.30;;
75427;SDS011;64008;55.612;37.698;2023-08-01T13:32:39;3.63;;;1.27;;
75427;SDS011;64008;55.612;37.698;2023-08-01T13:35:06;2.75;;;1.13;;
75427;SDS011;64008;55.612;37.698;2023-08-01T13:37:31;4.15;;;1.48;;
75427;SDS011;64008;55.612;37.698;2023-08-01T13:39:57;3.10;;;1.30;;
75427;SDS011;64008;55.612;37.698;2023-08-01T13:42:23;3.22;;;1.30;;
75427;SDS011;64008;55.612;37.698;2023-08-01T13:44:48;5.20;;;1.40;;
75427;SDS011;64008;55.612;37.698;2023-08-01T13:47:14;3.83;;;1.13;;
75427;SDS011;64008;55.612;37.698;2023-08-01T13:49:39;4.10;;;1.33;;
75427;SDS011;64008;55.612;37.698;2023-08-01T13:52:05;3.55;;;1.55;;
75427;SDS011;64008;55.612;37.698;2023-08-01T13:54:31;3.28;;;1.20;;
75427;SDS011;64008;55.612;37.698;2023-08-01T13:56:56;3.47;;;1.38;;
75427;SDS011;64008;55.612;37.698;2023-08-01T13:59:22;3.65;;;1.27;;
75427;SDS011;64008;55.612;37.698;2023-08-01T14:01:48;3.05;;;1.23;;
75427;SDS011;64008;55.612;37.698;2023-08-01T14:04:14;3.50;;;1.40;;
75427;SDS011;64008;55.612;37.698;2023-08-01T14:06:39;3.25;;;1.30;;
75427;SDS011;64008;55.612;37.698;2023-08-01T14:09:06;3.40;;;1.30;;
75427;SDS011;64008;55.612;37.698;2023-08-01T14:11:34;4.55;;;1.30;;
75427;SDS011;64008;55.612;37.698;2023-08-01T14:13:59;4.13;;;1.50;;
75427;SDS011;64008;55.612;37.698;2023-08-01T14:16:25;3.58;;;1.23;;
75427;SDS011;64008;55.612;37.698;2023-08-01T14:18:51;2.90;;;1.17;;
75427;SDS011;64008;55.612;37.698;2023-08-01T14:21:16;3.20;;;1.23;;
75427;SDS011;64008;55.612;37.698;2023-08-01T14:23:41;4.00;;;1.40;;
75427;SDS011;64008;55.612;37.698;2023-08-01T14:26:08;3.10;;;1.25;;
75427;SDS011;64008;55.612;37.698;2023-08-01T14:28:33;3.03;;;1.25;;
75427;SDS011;64008;55.612;37.698;2023-08-01T14:31:02;3.85;;;1.40;;
75427;SDS011;64008;55.612;37.698;2023-08-01T14:33:29;3.45;;;1.23;;
75427;SDS011;64008;55.612;37.698;2023-08-01T14:35:54;3.20;;;1.10;;
75427;SDS011;64008;55.612;37.698;2023-08-01T14:38:20;3.20;;;1.17;;
75427;SDS011;64008;55.612;37.698;2023-08-01T14:40:46;2.53;;;1.10;;
75427;SDS011;64008;55.612;37.698;2023-08-01T14:43:11;2.88;;;1.30;;
75427;SDS011;64008;55.612;37.698;2023-08-01T14:45:37;2.92;;;1.13;;
75427;SDS011;64008;55.612;37.698;2023-08-01T14:48:07;3.75;;;1.30;;